sensor_id;sensor_type;location;lat;lon;timestamp;P1;durP1;ratioP1;P2;durP2;ratioP2
18748;SDS011;9503;53.560;10.246;2022-07-17T00:01:42;5.83;;;2.80;;
18748;SDS011;9503;53.560;10.246;2022-07-17T00:04:08;5.60;;;2.90;;
18748;SDS011;9503;53.560;10.246;2022-07-17T00:06:35;5.47;;;2.90;;
18748;SDS011;9503;53.560;10.246;2022-07-17T00:09:01;4.83;;;2.43;;
18748;SDS011;9503;53.560;10.246;2022-07-17T00:11:28;6.70;;;2.93;;
18748;SDS011;9503;53.560;10.246;2022-07-17T00:13:56;11.27;;;2.70;;
18748;SDS011;9503;53.560;10.246;2022-07-17T00:16:23;7.97;;;2.87;;
18748;SDS011;9503;53.560;10.246;2022-07-17T00:18:49;8.97;;;2.70;;
18748;SDS011;9503;53.560;10.246;2022-07-17T00:21:16;7.97;;;2.87;;
18748;SDS011;9503;53.560;10.246;2022-07-17T00:23:43;8.80;;;2.90;;
18748;SDS011;9503;53.560;10.246;2022-07-17T00:26:09;8.67;;;2.87;;
18748;SDS011;9503;53.560;10.246;2022-07-17T00:28:36;7.13;;;3.23;;
18748;SDS011;9503;53.560;10.246;2022-07-17T00:31:04;5.23;;;2.90;;
18748;SDS011;9503;53.560;10.246;2022-07-17T00:33:31;6.07;;;2.87;;
18748;SDS011;9503;53.560;10.246;2022-07-17T00:35:57;6.77;;;2.73;;
18748;SDS011;9503;53.560;10.246;2022-07-17T00:38:24;4.53;;;2.50;;
18748;SDS011;9503;53.560;10.246;2022-07-17T00:40:52;7.53;;;2.80;;
18748;SDS011;9503;53.560;10.246;2022-07-17T00:43:20;8.47;;;2.70;;
18748;SDS011;9503;53.560;10.246;2022-07-17T00:45:53;7.23;;;2.90;;
18748;SDS011;9503;53.560;10.246;2022-07-17T00:48:22;8.23;;;2.80;;
18748;SDS011;9503;53.560;10.246;2022-07-17T00:50:49;6.30;;;3.00;;
18748;SDS011;9503;53.560;10.246;2022-07-17T00:53:15;11.43;;;3.30;;
18748;SDS011;9503;53.560;10.246;2022-07-17T00:55:42;8.23;;;2.90;;
18748;SDS011;9503;53.560;10.246;2022-07-17T00:58:12;13.77;;;3.70;;
18748;SDS011;9503;53.560;10.246;2022-07-17T01:00:43;9.23;;;2.77;;
18748;SDS011;9503;53.560;10.246;2022-07-17T01:03:10;12.03;;;3.10;;
18748;SDS011;9503;53.560;10.246;2022-07-17T01:05:38;10.47;;;3.60;;
18748;SDS011;9503;53.560;10.246;2022-07-17T01:08:05;7.97;;;2.80;;
18748;SDS011;9503;53.560;10.246;2022-07-17T01:10:31;9.50;;;3.40;;
18748;SDS011;9503;53.560;10.246;2022-07-17T01:12:58;10.47;;;4.47;;
18748;SDS011;9503;53.560;10.246;2022-07-17T01:15:25;8.00;;;2.90;;
18748;SDS011;9503;53.560;10.246;2022-07-17T01:17:51;5.60;;;2.87;;
18748;SDS011;9503;53.560;10.246;2022-07-17T01:20:18;6.43;;;2.87;;
18748;SDS011;9503;53.560;10.246;2022-07-17T01:22:47;12.37;;;3.30;;
18748;SDS011;9503;53.560;10.246;2022-07-17T01:25:15;5.97;;;2.93;;
18748;SDS011;9503;53.560;10.246;2022-07-17T01:27:43;8.73;;;2.90;;
18748;SDS011;9503;53.560;10.246;2022-07-17T01:30:10;8.80;;;2.57;;
18748;SDS011;9503;53.560;10.246;2022-07-17T01:32:37;5.83;;;3.03;;
18748;SDS011;9503;53.560;10.246;2022-07-17T01:35:05;9.03;;;3.27;;
18748;SDS011;9503;53.560;10.246;2022-07-17T01:37:33;9.23;;;3.57;;
18748;SDS011;9503;53.560;10.246;2022-07-17T01:40:01;9.00;;;3.20;;
18748;SDS011;9503;53.560;10.246;2022-07-17T01:42:29;9.47;;;3.30;;
18748;SDS011;9503;53.560;10.246;2022-07-17T01:44:56;7.60;;;3.00;;
18748;SDS011;9503;53.560;10.246;2022-07-17T01:47:23;6.90;;;3.07;;
18748;SDS011;9503;53.560;10.246;2022-07-17T01:49:50;10.70;;;4.00;;
18748;SDS011;9503;53.560;10.246;2022-07-17T01:52:18;8.00;;;3.40;;
18748;SDS011;9503;53.560;10.246;2022-07-17T01:54:45;5.20;;;2.70;;
18748;SDS011;9503;53.560;10.246;2022-07-17T01:57:13;6.27;;;3.10;;
18748;SDS011;9503;53.560;10.246;2022-07-17T01:59:40;7.13;;;2.63;;
18748;SDS011;9503;53.560;10.246;2022-07-17T02:02:07;7.47;;;3.10;;
18748;SDS011;9503;53.560;10.246;2022-07-17T02:04:35;9.17;;;3.30;;
18748;SDS011;9503;53.560;10.246;2022-07-17T02:07:03;5.33;;;2.93;;
18748;SDS011;9503;53.560;10.246;2022-07-17T02:09:30;3.23;;;2.90;;
18748;SDS011;9503;53.560;10.246;2022-07-17T02:11:56;13.60;;;4.03;;
18748;SDS011;9503;53.560;10.246;2022-07-17T02:14:24;5.80;;;2.90;;
18748;SDS011;9503;53.560;10.246;2022-07-17T02:16:51;8.37;;;3.43;;
18748;SDS011;9503;53.560;10.246;2022-07-17T02:19:18;8.50;;;3.47;;
18748;SDS011;9503;53.560;10.246;2022-07-17T02:21:45;8.37;;;3.17;;
18748;SDS011;9503;53.560;10.246;2022-07-17T02:24:11;7.53;;;3.73;;
18748;SDS011;9503;53.560;10.246;2022-07-17T02:26:39;11.47;;;3.77;;
18748;SDS011;9503;53.560;10.246;2022-07-17T02:29:06;8.70;;;3.67;;
18748;SDS011;9503;53.560;10.246;2022-07-17T02:31:34;15.67;;;4.83;;
18748;SDS011;9503;53.560;10.246;2022-07-17T02:34:01;14.47;;;5.63;;
18748;SDS011;9503;53.560;10.246;2022-07-17T02:36:27;14.03;;;4.70;;
18748;SDS011;9503;53.560;10.246;2022-07-17T02:38:54;13.87;;;4.43;;
18748;SDS011;9503;53.560;10.246;2022-07-17T02:41:21;13.27;;;4.50;;
18748;SDS011;9503;53.560;10.246;2022-07-17T02:43:47;11.63;;;3.87;;
18748;SDS011;9503;53.560;10.246;2022-07-17T02:46:14;10.87;;;4.20;;
18748;SDS011;9503;53.560;10.246;2022-07-17T02:48:42;12.83;;;5.10;;
18748;SDS011;9503;53.560;10.246;2022-07-17T02:51:09;10.03;;;4.20;;
18748;SDS011;9503;53.560;10.246;2022-07-17T02:53:35;14.63;;;5.00;;
18748;SDS011;9503;53.560;10.246;2022-07-17T02:56:02;15.17;;;4.87;;
18748;SDS011;9503;53.560;10.246;2022-07-17T02:58:29;11.27;;;4.50;;
18748;SDS011;9503;53.560;10.246;2022-07-17T03:00:56;10.07;;;4.27;;
18748;SDS011;9503;53.560;10.246;2022-07-17T03:03:23;10.90;;;4.30;;
18748;SDS011;9503;53.560;10.246;2022-07-17T03:05:51;13.93;;;4.60;;
18748;SDS011;9503;53.560;10.246;2022-07-17T03:08:18;8.10;;;3.70;;
18748;SDS011;9503;53.560;10.246;2022-07-17T03:10:44;11.77;;;4.23;;
18748;SDS011;9503;53.560;10.246;2022-07-17T03:13:11;10.40;;;4.07;;
18748;SDS011;9503;53.560;10.246;2022-07-17T03:15:37;16.20;;;4.10;;
18748;SDS011;9503;53.560;10.246;2022-07-17T03:18:04;13.53;;;3.87;;
18748;SDS011;9503;53.560;10.246;2022-07-17T03:20:31;7.97;;;4.07;;
18748;SDS011;9503;53.560;10.246;2022-07-17T03:22:58;15.73;;;4.10;;
18748;SDS011;9503;53.560;10.246;2022-07-17T03:25:25;14.30;;;4.07;;
18748;SDS011;9503;53.560;10.246;2022-07-17T03:27:52;11.87;;;4.10;;
18748;SDS011;9503;53.560;10.246;2022-07-17T03:30:18;13.87;;;4.70;;
18748;SDS011;9503;53.560;10.246;2022-07-17T03:32:45;15.00;;;5.03;;
18748;SDS011;9503;53.560;10.246;2022-07-17T03:35:11;11.97;;;4.30;;
18748;SDS011;9503;53.560;10.246;2022-07-17T03:37:38;6.70;;;3.63;;
18748;SDS011;9503;53.560;10.246;2022-07-17T03:40:07;11.47;;;4.00;;
18748;SDS011;9503;53.560;10.246;2022-07-17T03:42:34;14.73;;;4.50;;
18748;SDS011;9503;53.560;10.246;2022-07-17T03:45:01;15.13;;;4.30;;
18748;SDS011;9503;53.560;10.246;2022-07-17T03:47:27;8.23;;;4.00;;
18748;SDS011;9503;53.560;10.246;2022-07-17T03:49:54;8.87;;;3.67;;
18748;SDS011;9503;53.560;10.246;2022-07-17T03:52:20;11.80;;;3.83;;
18748;SDS011;9503;53.560;10.246;2022-07-17T03:54:47;13.73;;;4.37;;
18748;SDS011;9503;53.560;10.246;2022-07-17T03:57:15;11.93;;;3.80;;
18748;SDS011;9503;53.560;10.246;2022-07-17T03:59:41;9.70;;;3.40;;
18748;SDS011;9503;53.560;10.246;2022-07-17T04:02:08;10.83;;;3.53;;
18748;SDS011;9503;53.560;10.246;2022-07-17T04:04:34;12.90;;;3.87;;
18748;SDS011;9503;53.560;10.246;2022-07-17T04:07:01;7.17;;;3.47;;
18748;SDS011;9503;53.560;10.246;2022-07-17T04:09:28;11.90;;;3.50;;
18748;SDS011;9503;53.560;10.246;2022-07-17T04:11:54;8.70;;;3.57;;
18748;SDS011;9503;53.560;10.246;2022-07-17T04:14:22;9.07;;;4.23;;
18748;SDS011;9503;53.560;10.246;2022-07-17T04:16:49;7.50;;;3.60;;
18748;SDS011;9503;53.560;10.246;2022-07-17T04:19:15;11.93;;;3.80;;
18748;SDS011;9503;53.560;10.246;2022-07-17T04:21:42;10.37;;;3.57;;
18748;SDS011;9503;53.560;10.246;2022-07-17T04:24:08;7.80;;;3.73;;
18748;SDS011;9503;53.560;10.246;2022-07-17T04:26:35;9.97;;;3.17;;
18748;SDS011;9503;53.560;10.246;2022-07-17T04:29:02;12.93;;;4.07;;
18748;SDS011;9503;53.560;10.246;2022-07-17T04:31:30;13.23;;;3.80;;
18748;SDS011;9503;53.560;10.246;2022-07-17T04:33:56;12.30;;;3.97;;
18748;SDS011;9503;53.560;10.246;2022-07-17T04:36:23;11.10;;;3.30;;
18748;SDS011;9503;53.560;10.246;2022-07-17T04:38:49;11.07;;;3.83;;
18748;SDS011;9503;53.560;10.246;2022-07-17T04:41:16;7.60;;;3.30;;
18748;SDS011;9503;53.560;10.246;2022-07-17T04:43:42;9.30;;;3.63;;
18748;SDS011;9503;53.560;10.246;2022-07-17T04:46:09;12.03;;;3.17;;
18748;SDS011;9503;53.560;10.246;2022-07-17T04:48:37;9.93;;;3.40;;
18748;SDS011;9503;53.560;10.246;2022-07-17T04:51:03;10.37;;;3.63;;
18748;SDS011;9503;53.560;10.246;2022-07-17T04:53:30;8.97;;;3.03;;
18748;SDS011;9503;53.560;10.246;2022-07-17T04:55:56;9.43;;;3.00;;
18748;SDS011;9503;53.560;10.246;2022-07-17T04:58:23;9.13;;;3.30;;
18748;SDS011;9503;53.560;10.246;2022-07-17T05:00:49;12.90;;;3.23;;
18748;SDS011;9503;53.560;10.246;2022-07-17T05:03:16;13.30;;;3.17;;
18748;SDS011;9503;53.560;10.246;2022-07-17T05:05:44;9.87;;;2.90;;
18748;SDS011;9503;53.560;10.246;2022-07-17T05:08:10;12.97;;;3.07;;
18748;SDS011;9503;53.560;10.246;2022-07-17T05:10:37;18.67;;;3.50;;
18748;SDS011;9503;53.560;10.246;2022-07-17T05:13:04;12.47;;;3.07;;
18748;SDS011;9503;53.560;10.246;2022-07-17T05:15:30;10.47;;;3.40;;
18748;SDS011;9503;53.560;10.246;2022-07-17T05:17:57;15.53;;;3.40;;
18748;SDS011;9503;53.560;10.246;2022-07-17T05:20:23;9.87;;;3.13;;
18748;SDS011;9503;53.560;10.246;2022-07-17T05:22:52;14.63;;;3.20;;
18748;SDS011;9503;53.560;10.246;2022-07-17T05:25:19;11.03;;;3.30;;
18748;SDS011;9503;53.560;10.246;2022-07-17T05:27:45;9.60;;;2.97;;
18748;SDS011;9503;53.560;10.246;2022-07-17T05:30:12;8.77;;;3.50;;
18748;SDS011;9503;53.560;10.246;2022-07-17T05:32:38;6.00;;;3.20;;
18748;SDS011;9503;53.560;10.246;2022-07-17T05:35:05;11.10;;;3.10;;
18748;SDS011;9503;53.560;10.246;2022-07-17T05:37:32;10.90;;;3.00;;
18748;SDS011;9503;53.560;10.246;2022-07-17T05:40:00;9.27;;;3.30;;
18748;SDS011;9503;53.560;10.246;2022-07-17T05:42:27;9.20;;;3.00;;
18748;SDS011;9503;53.560;10.246;2022-07-17T05:44:53;7.57;;;2.97;;
18748;SDS011;9503;53.560;10.246;2022-07-17T05:47:20;15.60;;;3.00;;
18748;SDS011;9503;53.560;10.246;2022-07-17T05:49:47;9.27;;;3.07;;
18748;SDS011;9503;53.560;10.246;2022-07-17T05:52:13;10.20;;;2.97;;
18748;SDS011;9503;53.560;10.246;2022-07-17T05:54:40;9.57;;;2.80;;
18748;SDS011;9503;53.560;10.246;2022-07-17T05:57:08;6.95;;;2.47;;
18748;SDS011;9503;53.560;10.246;2022-07-17T05:59:34;6.43;;;2.50;;
18748;SDS011;9503;53.560;10.246;2022-07-17T06:02:01;10.15;;;2.40;;
18748;SDS011;9503;53.560;10.246;2022-07-17T06:04:27;6.95;;;2.60;;
18748;SDS011;9503;53.560;10.246;2022-07-17T06:06:54;7.30;;;2.35;;
18748;SDS011;9503;53.560;10.246;2022-07-17T06:09:20;7.85;;;2.30;;
18748;SDS011;9503;53.560;10.246;2022-07-17T06:11:47;12.48;;;2.30;;
18748;SDS011;9503;53.560;10.246;2022-07-17T06:14:15;12.23;;;2.80;;
18748;SDS011;9503;53.560;10.246;2022-07-17T06:16:42;8.40;;;2.28;;
18748;SDS011;9503;53.560;10.246;2022-07-17T06:19:08;10.15;;;2.50;;
18748;SDS011;9503;53.560;10.246;2022-07-17T06:21:35;9.60;;;2.67;;
18748;SDS011;9503;53.560;10.246;2022-07-17T06:24:01;9.75;;;2.42;;
18748;SDS011;9503;53.560;10.246;2022-07-17T06:26:28;5.28;;;1.77;;
18748;SDS011;9503;53.560;10.246;2022-07-17T06:28:55;6.95;;;2.28;;
18748;SDS011;9503;53.560;10.246;2022-07-17T06:31:22;5.40;;;2.40;;
18748;SDS011;9503;53.560;10.246;2022-07-17T06:33:49;4.18;;;1.75;;
18748;SDS011;9503;53.560;10.246;2022-07-17T06:36:15;8.70;;;2.50;;
18748;SDS011;9503;53.560;10.246;2022-07-17T06:38:42;9.00;;;2.70;;
18748;SDS011;9503;53.560;10.246;2022-07-17T06:41:11;6.97;;;2.17;;
18748;SDS011;9503;53.560;10.246;2022-07-17T06:43:38;5.22;;;2.22;;
18748;SDS011;9503;53.560;10.246;2022-07-17T06:46:04;7.00;;;2.28;;
18748;SDS011;9503;53.560;10.246;2022-07-17T06:48:32;9.20;;;2.53;;
18748;SDS011;9503;53.560;10.246;2022-07-17T06:50:59;5.18;;;2.15;;
18748;SDS011;9503;53.560;10.246;2022-07-17T06:53:25;12.82;;;2.50;;
18748;SDS011;9503;53.560;10.246;2022-07-17T06:55:52;12.23;;;2.40;;
18748;SDS011;9503;53.560;10.246;2022-07-17T06:58:18;6.57;;;1.77;;
18748;SDS011;9503;53.560;10.246;2022-07-17T07:00:45;3.35;;;1.77;;
18748;SDS011;9503;53.560;10.246;2022-07-17T07:03:12;8.15;;;2.05;;
18748;SDS011;9503;53.560;10.246;2022-07-17T07:05:39;7.43;;;2.08;;
18748;SDS011;9503;53.560;10.246;2022-07-17T07:08:06;4.68;;;2.00;;
18748;SDS011;9503;53.560;10.246;2022-07-17T07:10:32;4.82;;;1.85;;
18748;SDS011;9503;53.560;10.246;2022-07-17T07:12:59;5.00;;;2.28;;
18748;SDS011;9503;53.560;10.246;2022-07-17T07:15:26;8.32;;;2.20;;
18748;SDS011;9503;53.560;10.246;2022-07-17T07:17:53;6.10;;;2.05;;
18748;SDS011;9503;53.560;10.246;2022-07-17T07:20:19;7.53;;;2.55;;
18748;SDS011;9503;53.560;10.246;2022-07-17T07:22:47;4.70;;;1.98;;
18748;SDS011;9503;53.560;10.246;2022-07-17T07:25:14;7.40;;;2.00;;
18748;SDS011;9503;53.560;10.246;2022-07-17T07:27:40;5.00;;;2.00;;
18748;SDS011;9503;53.560;10.246;2022-07-17T07:30:08;9.43;;;2.40;;
18748;SDS011;9503;53.560;10.246;2022-07-17T07:32:35;5.63;;;2.03;;
18748;SDS011;9503;53.560;10.246;2022-07-17T07:35:03;10.43;;;2.03;;
18748;SDS011;9503;53.560;10.246;2022-07-17T07:37:30;8.60;;;2.20;;
18748;SDS011;9503;53.560;10.246;2022-07-17T07:40:00;2.85;;;1.67;;
18748;SDS011;9503;53.560;10.246;2022-07-17T07:42:28;5.82;;;1.73;;
18748;SDS011;9503;53.560;10.246;2022-07-17T07:44:55;6.25;;;1.80;;
18748;SDS011;9503;53.560;10.246;2022-07-17T07:47:21;5.07;;;1.83;;
18748;SDS011;9503;53.560;10.246;2022-07-17T07:49:48;5.18;;;2.13;;
18748;SDS011;9503;53.560;10.246;2022-07-17T07:52:15;6.35;;;1.98;;
18748;SDS011;9503;53.560;10.246;2022-07-17T07:54:41;9.98;;;1.90;;
18748;SDS011;9503;53.560;10.246;2022-07-17T07:57:09;5.20;;;1.77;;
18748;SDS011;9503;53.560;10.246;2022-07-17T07:59:36;4.53;;;1.75;;
18748;SDS011;9503;53.560;10.246;2022-07-17T08:02:03;11.00;;;1.77;;
18748;SDS011;9503;53.560;10.246;2022-07-17T08:04:30;5.95;;;2.10;;
18748;SDS011;9503;53.560;10.246;2022-07-17T08:06:57;8.57;;;2.22;;
18748;SDS011;9503;53.560;10.246;2022-07-17T08:09:23;5.90;;;2.00;;
18748;SDS011;9503;53.560;10.246;2022-07-17T08:11:50;8.35;;;1.90;;
18748;SDS011;9503;53.560;10.246;2022-07-17T08:14:18;5.00;;;1.80;;
18748;SDS011;9503;53.560;10.246;2022-07-17T08:16:45;8.45;;;2.00;;
18748;SDS011;9503;53.560;10.246;2022-07-17T08:19:11;7.93;;;1.70;;
18748;SDS011;9503;53.560;10.246;2022-07-17T08:21:38;7.13;;;1.70;;
18748;SDS011;9503;53.560;10.246;2022-07-17T08:24:05;6.32;;;1.88;;
18748;SDS011;9503;53.560;10.246;2022-07-17T08:26:31;5.90;;;1.70;;
18748;SDS011;9503;53.560;10.246;2022-07-17T08:28:58;6.63;;;1.88;;
18748;SDS011;9503;53.560;10.246;2022-07-17T08:31:26;5.88;;;1.98;;
18748;SDS011;9503;53.560;10.246;2022-07-17T08:33:53;8.20;;;1.85;;
18748;SDS011;9503;53.560;10.246;2022-07-17T08:36:19;3.38;;;1.77;;
18748;SDS011;9503;53.560;10.246;2022-07-17T08:38:46;7.05;;;2.20;;
18748;SDS011;9503;53.560;10.246;2022-07-17T08:41:14;5.88;;;1.52;;
18748;SDS011;9503;53.560;10.246;2022-07-17T08:43:41;9.05;;;2.00;;
18748;SDS011;9503;53.560;10.246;2022-07-17T08:46:09;6.07;;;1.77;;
18748;SDS011;9503;53.560;10.246;2022-07-17T08:48:37;7.60;;;2.15;;
18748;SDS011;9503;53.560;10.246;2022-07-17T08:51:06;4.22;;;1.73;;
18748;SDS011;9503;53.560;10.246;2022-07-17T08:53:33;3.83;;;1.50;;
18748;SDS011;9503;53.560;10.246;2022-07-17T08:56:00;7.47;;;2.03;;
18748;SDS011;9503;53.560;10.246;2022-07-17T08:58:27;6.70;;;1.95;;
18748;SDS011;9503;53.560;10.246;2022-07-17T09:00:53;6.15;;;2.22;;
18748;SDS011;9503;53.560;10.246;2022-07-17T09:03:20;7.18;;;2.10;;
18748;SDS011;9503;53.560;10.246;2022-07-17T09:05:49;5.70;;;2.15;;
18748;SDS011;9503;53.560;10.246;2022-07-17T09:08:16;4.05;;;2.08;;
18748;SDS011;9503;53.560;10.246;2022-07-17T09:10:45;5.80;;;1.92;;
18748;SDS011;9503;53.560;10.246;2022-07-17T09:13:16;7.15;;;1.70;;
18748;SDS011;9503;53.560;10.246;2022-07-17T09:15:45;5.38;;;1.88;;
18748;SDS011;9503;53.560;10.246;2022-07-17T09:18:13;7.03;;;1.80;;
18748;SDS011;9503;53.560;10.246;2022-07-17T09:20:46;4.20;;;1.98;;
18748;SDS011;9503;53.560;10.246;2022-07-17T09:23:16;8.23;;;1.90;;
18748;SDS011;9503;53.560;10.246;2022-07-17T09:25:44;7.05;;;2.03;;
18748;SDS011;9503;53.560;10.246;2022-07-17T09:28:12;5.85;;;2.10;;
18748;SDS011;9503;53.560;10.246;2022-07-17T09:30:40;6.72;;;1.77;;
18748;SDS011;9503;53.560;10.246;2022-07-17T09:33:11;5.55;;;1.95;;
18748;SDS011;9503;53.560;10.246;2022-07-17T09:35:49;7.10;;;2.00;;
18748;SDS011;9503;53.560;10.246;2022-07-17T09:38:28;7.72;;;2.20;;
18748;SDS011;9503;53.560;10.246;2022-07-17T09:41:06;6.57;;;2.25;;
18748;SDS011;9503;53.560;10.246;2022-07-17T09:43:46;4.47;;;1.52;;
18748;SDS011;9503;53.560;10.246;2022-07-17T09:46:16;4.63;;;1.60;;
18748;SDS011;9503;53.560;10.246;2022-07-17T09:48:46;4.20;;;1.90;;
18748;SDS011;9503;53.560;10.246;2022-07-17T09:51:18;6.97;;;1.92;;
18748;SDS011;9503;53.560;10.246;2022-07-17T09:53:48;6.82;;;2.20;;
18748;SDS011;9503;53.560;10.246;2022-07-17T09:56:17;5.57;;;1.80;;
18748;SDS011;9503;53.560;10.246;2022-07-17T09:58:45;5.63;;;2.00;;
18748;SDS011;9503;53.560;10.246;2022-07-17T10:01:14;4.47;;;1.90;;
18748;SDS011;9503;53.560;10.246;2022-07-17T10:03:41;4.90;;;1.65;;
18748;SDS011;9503;53.560;10.246;2022-07-17T10:06:09;4.57;;;1.63;;
18748;SDS011;9503;53.560;10.246;2022-07-17T10:08:36;6.03;;;2.10;;
18748;SDS011;9503;53.560;10.246;2022-07-17T10:11:04;4.97;;;1.77;;
18748;SDS011;9503;53.560;10.246;2022-07-17T10:13:31;15.80;;;2.17;;
18748;SDS011;9503;53.560;10.246;2022-07-17T10:15:58;8.73;;;1.92;;
18748;SDS011;9503;53.560;10.246;2022-07-17T10:18:33;3.88;;;1.92;;
18748;SDS011;9503;53.560;10.246;2022-07-17T10:21:05;4.00;;;1.48;;
18748;SDS011;9503;53.560;10.246;2022-07-17T10:23:33;6.68;;;1.75;;
18748;SDS011;9503;53.560;10.246;2022-07-17T10:26:00;4.13;;;1.45;;
18748;SDS011;9503;53.560;10.246;2022-07-17T10:28:38;3.88;;;1.50;;
18748;SDS011;9503;53.560;10.246;2022-07-17T10:31:08;5.10;;;1.52;;
18748;SDS011;9503;53.560;10.246;2022-07-17T10:33:35;3.25;;;1.48;;
18748;SDS011;9503;53.560;10.246;2022-07-17T10:36:03;4.55;;;1.50;;
18748;SDS011;9503;53.560;10.246;2022-07-17T10:38:40;2.78;;;1.48;;
18748;SDS011;9503;53.560;10.246;2022-07-17T10:41:08;7.55;;;1.75;;
18748;SDS011;9503;53.560;10.246;2022-07-17T10:43:42;4.97;;;1.70;;
18748;SDS011;9503;53.560;10.246;2022-07-17T10:46:09;4.20;;;1.80;;
18748;SDS011;9503;53.560;10.246;2022-07-17T10:48:38;4.72;;;1.50;;
18748;SDS011;9503;53.560;10.246;2022-07-17T10:51:06;3.88;;;1.63;;
18748;SDS011;9503;53.560;10.246;2022-07-17T10:53:33;4.68;;;1.65;;
18748;SDS011;9503;53.560;10.246;2022-07-17T10:56:02;6.00;;;1.85;;
18748;SDS011;9503;53.560;10.246;2022-07-17T10:58:32;3.00;;;1.60;;
18748;SDS011;9503;53.560;10.246;2022-07-17T11:01:05;2.88;;;1.55;;
18748;SDS011;9503;53.560;10.246;2022-07-17T11:03:36;3.72;;;1.63;;
18748;SDS011;9503;53.560;10.246;2022-07-17T11:06:07;4.90;;;1.77;;
18748;SDS011;9503;53.560;10.246;2022-07-17T11:08:39;3.35;;;1.60;;
18748;SDS011;9503;53.560;10.246;2022-07-17T11:11:07;2.70;;;1.60;;
18748;SDS011;9503;53.560;10.246;2022-07-17T11:13:34;4.93;;;1.50;;
18748;SDS011;9503;53.560;10.246;2022-07-17T11:16:00;3.28;;;1.80;;
18748;SDS011;9503;53.560;10.246;2022-07-17T11:18:28;3.80;;;1.85;;
18748;SDS011;9503;53.560;10.246;2022-07-17T11:20:56;3.70;;;1.60;;
18748;SDS011;9503;53.560;10.246;2022-07-17T11:23:25;2.25;;;1.33;;
18748;SDS011;9503;53.560;10.246;2022-07-17T11:25:55;3.90;;;1.50;;
18748;SDS011;9503;53.560;10.246;2022-07-17T11:28:27;4.88;;;1.58;;
18748;SDS011;9503;53.560;10.246;2022-07-17T11:31:02;2.72;;;1.38;;
18748;SDS011;9503;53.560;10.246;2022-07-17T11:33:32;5.35;;;1.73;;
18748;SDS011;9503;53.560;10.246;2022-07-17T11:35:58;6.88;;;1.65;;
18748;SDS011;9503;53.560;10.246;2022-07-17T11:38:26;2.50;;;1.60;;
18748;SDS011;9503;53.560;10.246;2022-07-17T11:40:53;2.67;;;1.70;;
18748;SDS011;9503;53.560;10.246;2022-07-17T11:43:20;1.42;;;1.30;;
18748;SDS011;9503;53.560;10.246;2022-07-17T11:45:47;3.47;;;1.40;;
18748;SDS011;9503;53.560;10.246;2022-07-17T11:48:14;4.30;;;1.50;;
18748;SDS011;9503;53.560;10.246;2022-07-17T11:50:51;6.65;;;1.90;;
18748;SDS011;9503;53.560;10.246;2022-07-17T11:53:18;3.83;;;1.60;;
18748;SDS011;9503;53.560;10.246;2022-07-17T11:55:45;3.65;;;1.33;;
18748;SDS011;9503;53.560;10.246;2022-07-17T11:58:11;2.78;;;1.55;;
18748;SDS011;9503;53.560;10.246;2022-07-17T12:00:38;4.95;;;1.70;;
18748;SDS011;9503;53.560;10.246;2022-07-17T12:03:05;7.15;;;1.60;;
18748;SDS011;9503;53.560;10.246;2022-07-17T12:05:33;4.68;;;1.50;;
18748;SDS011;9503;53.560;10.246;2022-07-17T12:08:02;3.33;;;1.45;;
18748;SDS011;9503;53.560;10.246;2022-07-17T12:10:34;6.18;;;1.50;;
18748;SDS011;9503;53.560;10.246;2022-07-17T12:13:01;2.33;;;1.23;;
18748;SDS011;9503;53.560;10.246;2022-07-17T12:15:36;4.68;;;1.45;;
18748;SDS011;9503;53.560;10.246;2022-07-17T12:18:03;3.13;;;1.27;;
18748;SDS011;9503;53.560;10.246;2022-07-17T12:20:41;2.05;;;1.33;;
18748;SDS011;9503;53.560;10.246;2022-07-17T12:23:10;4.20;;;1.48;;
18748;SDS011;9503;53.560;10.246;2022-07-17T12:25:52;4.18;;;1.75;;
18748;SDS011;9503;53.560;10.246;2022-07-17T12:28:29;4.72;;;1.50;;
18748;SDS011;9503;53.560;10.246;2022-07-17T12:30:56;4.10;;;1.50;;
18748;SDS011;9503;53.560;10.246;2022-07-17T12:33:23;2.67;;;1.35;;
18748;SDS011;9503;53.560;10.246;2022-07-17T12:35:49;3.83;;;1.63;;
18748;SDS011;9503;53.560;10.246;2022-07-17T12:38:17;5.15;;;1.55;;
18748;SDS011;9503;53.560;10.246;2022-07-17T12:40:44;4.30;;;1.50;;
18748;SDS011;9503;53.560;10.246;2022-07-17T12:43:10;2.80;;;1.33;;
18748;SDS011;9503;53.560;10.246;2022-07-17T12:45:38;7.10;;;2.17;;
18748;SDS011;9503;53.560;10.246;2022-07-17T12:48:04;4.97;;;1.85;;
18748;SDS011;9503;53.560;10.246;2022-07-17T12:50:31;6.18;;;1.95;;
18748;SDS011;9503;53.560;10.246;2022-07-17T12:52:58;3.60;;;1.77;;
18748;SDS011;9503;53.560;10.246;2022-07-17T12:55:26;5.43;;;2.17;;
18748;SDS011;9503;53.560;10.246;2022-07-17T12:57:53;5.32;;;1.88;;
18748;SDS011;9503;53.560;10.246;2022-07-17T13:00:19;2.90;;;1.70;;
18748;SDS011;9503;53.560;10.246;2022-07-17T13:02:46;3.88;;;1.30;;
18748;SDS011;9503;53.560;10.246;2022-07-17T13:05:13;2.08;;;1.30;;
18748;SDS011;9503;53.560;10.246;2022-07-17T13:07:39;3.63;;;1.40;;
18748;SDS011;9503;53.560;10.246;2022-07-17T13:10:09;4.15;;;1.60;;
18748;SDS011;9503;53.560;10.246;2022-07-17T13:12:37;5.25;;;1.90;;
18748;SDS011;9503;53.560;10.246;2022-07-17T13:15:04;3.22;;;1.27;;
18748;SDS011;9503;53.560;10.246;2022-07-17T13:17:31;4.63;;;1.30;;
18748;SDS011;9503;53.560;10.246;2022-07-17T13:19:58;1.48;;;1.30;;
18748;SDS011;9503;53.560;10.246;2022-07-17T13:22:24;3.13;;;1.40;;
18748;SDS011;9503;53.560;10.246;2022-07-17T13:24:51;5.40;;;1.45;;
18748;SDS011;9503;53.560;10.246;2022-07-17T13:27:17;5.03;;;1.42;;
18748;SDS011;9503;53.560;10.246;2022-07-17T13:29:45;5.60;;;1.70;;
18748;SDS011;9503;53.560;10.246;2022-07-17T13:32:12;3.20;;;1.67;;
18748;SDS011;9503;53.560;10.246;2022-07-17T13:34:38;6.47;;;1.80;;
18748;SDS011;9503;53.560;10.246;2022-07-17T13:37:05;3.90;;;1.73;;
18748;SDS011;9503;53.560;10.246;2022-07-17T13:39:33;4.70;;;1.48;;
18748;SDS011;9503;53.560;10.246;2022-07-17T13:42:00;1.85;;;1.48;;
18748;SDS011;9503;53.560;10.246;2022-07-17T13:44:26;3.45;;;1.52;;
18748;SDS011;9503;53.560;10.246;2022-07-17T13:46:54;7.18;;;1.58;;
18748;SDS011;9503;53.560;10.246;2022-07-17T13:49:21;3.60;;;1.30;;
18748;SDS011;9503;53.560;10.246;2022-07-17T13:51:47;3.35;;;1.35;;
18748;SDS011;9503;53.560;10.246;2022-07-17T13:54:14;2.55;;;1.65;;
18748;SDS011;9503;53.560;10.246;2022-07-17T13:56:41;1.80;;;1.35;;
18748;SDS011;9503;53.560;10.246;2022-07-17T13:59:07;1.75;;;1.27;;
18748;SDS011;9503;53.560;10.246;2022-07-17T14:01:34;5.13;;;1.48;;
18748;SDS011;9503;53.560;10.246;2022-07-17T14:04:02;1.92;;;1.25;;
18748;SDS011;9503;53.560;10.246;2022-07-17T14:06:29;4.95;;;1.52;;
18748;SDS011;9503;53.560;10.246;2022-07-17T14:08:55;4.05;;;1.38;;
18748;SDS011;9503;53.560;10.246;2022-07-17T14:11:22;2.47;;;1.48;;
18748;SDS011;9503;53.560;10.246;2022-07-17T14:13:49;3.78;;;1.38;;
18748;SDS011;9503;53.560;10.246;2022-07-17T14:16:16;1.63;;;1.23;;
18748;SDS011;9503;53.560;10.246;2022-07-17T14:18:43;5.13;;;1.33;;
18748;SDS011;9503;53.560;10.246;2022-07-17T14:21:38;3.13;;;1.23;;
18748;SDS011;9503;53.560;10.246;2022-07-17T14:24:05;2.00;;;1.50;;
18748;SDS011;9503;53.560;10.246;2022-07-17T14:26:33;2.90;;;1.40;;
18748;SDS011;9503;53.560;10.246;2022-07-17T14:29:00;2.03;;;1.15;;
18748;SDS011;9503;53.560;10.246;2022-07-17T14:31:27;3.83;;;1.20;;
18748;SDS011;9503;53.560;10.246;2022-07-17T14:33:54;1.55;;;1.40;;
18748;SDS011;9503;53.560;10.246;2022-07-17T14:36:21;2.60;;;1.50;;
18748;SDS011;9503;53.560;10.246;2022-07-17T14:38:49;2.42;;;1.63;;
18748;SDS011;9503;53.560;10.246;2022-07-17T14:41:16;4.90;;;1.63;;
18748;SDS011;9503;53.560;10.246;2022-07-17T14:43:43;1.65;;;1.50;;
18748;SDS011;9503;53.560;10.246;2022-07-17T14:46:10;4.07;;;1.63;;
18748;SDS011;9503;53.560;10.246;2022-07-17T14:48:51;4.38;;;1.70;;